createdAt,value
2019-01-10T00:02:58.682Z,96990.54
2019-01-10T00:07:53.286Z,96998.11
2019-01-10T00:12:48.020Z,96997.00
2019-01-10T00:17:42.769Z,97002.47
2019-01-10T00:22:37.382Z,97003.91
2019-01-10T00:27:31.999Z,97011.98
2019-01-10T00:32:26.590Z,97007.47
2019-01-10T00:37:21.208Z,97008.28
2019-01-10T00:42:15.841Z,97004.90
2019-01-10T00:47:10.420Z,97006.81
2019-01-10T00:52:05.025Z,97001.34
2019-01-10T00:56:59.609Z,97008.45
2019-01-10T01:01:54.286Z,97010.88
2019-01-10T01:06:48.874Z,97011.69
2019-01-10T01:11:43.640Z,97019.92
2019-01-10T01:16:38.203Z,97026.22
2019-01-10T01:21:32.890Z,97035.41
2019-01-10T01:26:27.472Z,97045.73
2019-01-10T01:31:22.086Z,97040.09
2019-01-10T01:36:16.687Z,97064.78
2019-01-10T01:41:11.379Z,97072.69
2019-01-10T01:46:07.759Z,97074.28
2019-01-10T01:51:02.544Z,97065.10
2019-01-10T01:55:57.120Z,97064.64
2019-01-10T02:00:51.804Z,97081.45
2019-01-10T02:05:46.431Z,97092.26
2019-01-10T02:10:41.122Z,97107.42
2019-01-10T02:15:35.708Z,97102.75
2019-01-10T02:20:30.382Z,97106.00
2019-01-10T02:25:25.121Z,97113.09
2019-01-10T02:30:25.139Z,97105.82
2019-01-10T02:35:20.159Z,97110.34
2019-01-10T02:40:15.133Z,97110.19
2019-01-10T02:45:13.809Z,97112.77
2019-01-10T02:50:15.620Z,97102.76
2019-01-10T02:55:11.115Z,97101.77
2019-01-10T03:00:15.794Z,97108.72
2019-01-10T03:05:10.698Z,97103.70
2019-01-10T03:10:09.228Z,97118.08
2019-01-10T03:15:04.731Z,97112.72
2019-01-10T03:19:59.335Z,97116.42
2019-01-10T03:24:53.944Z,97113.34
2019-01-10T03:29:48.550Z,97094.31
2019-01-10T03:34:43.532Z,97094.97
2019-01-10T03:39:38.224Z,97094.64
2019-01-10T03:44:34.497Z,97093.06
2019-01-10T03:49:29.168Z,97099.70
2019-01-10T03:54:23.844Z,97098.71
2019-01-10T03:59:18.469Z,97113.89
2019-01-10T04:04:13.048Z,97119.55
2019-01-10T04:09:08.405Z,97115.98
2019-01-10T04:14:03.053Z,97114.69
2019-01-10T04:18:57.646Z,97115.16
2019-01-10T04:23:53.816Z,97104.19
2019-01-10T04:28:48.417Z,97105.97
2019-01-10T04:33:43.009Z,97115.66
2019-01-10T04:38:37.650Z,97120.53
2019-01-10T04:43:32.262Z,97129.42
2019-01-10T04:48:26.867Z,97127.65
2019-01-10T04:53:21.486Z,97131.20
2019-01-10T04:58:16.094Z,97137.82
2019-01-10T05:03:10.700Z,97140.55
2019-01-10T05:08:05.390Z,97146.98
2019-01-10T05:12:59.991Z,97147.50
2019-01-10T05:17:54.597Z,97145.38
2019-01-10T05:22:49.455Z,97145.55
2019-01-10T05:27:44.125Z,97150.22
2019-01-10T05:32:38.754Z,97151.05
2019-01-10T05:37:33.421Z,97155.88
2019-01-10T05:42:28.033Z,97155.72
2019-01-10T05:47:22.769Z,97154.75
2019-01-10T05:52:17.394Z,97150.83
2019-01-10T05:57:11.995Z,97166.95
2019-01-10T06:02:06.651Z,97169.06
2019-01-10T06:07:01.258Z,97166.32
2019-01-10T06:11:55.885Z,97167.02
2019-01-10T06:16:50.483Z,97178.01
2019-01-10T06:21:45.186Z,97178.01
2019-01-10T06:26:39.787Z,97182.98
2019-01-10T06:31:34.416Z,97189.27
2019-01-10T06:36:35.793Z,97198.48
2019-01-10T06:41:31.347Z,97201.59
2019-01-10T06:46:25.956Z,97195.27
2019-01-10T06:51:20.567Z,97208.31
2019-01-10T06:56:15.230Z,97208.48
2019-01-10T07:01:09.823Z,97208.94
2019-01-10T07:06:04.525Z,97218.81
2019-01-10T07:10:59.146Z,97224.31
2019-01-10T07:15:53.741Z,97230.31
2019-01-10T07:20:48.426Z,97242.61
2019-01-10T07:25:43.028Z,97239.06
2019-01-10T07:30:37.713Z,97250.22
2019-01-10T07:35:32.462Z,97253.97
2019-01-10T07:40:27.061Z,97256.35
2019-01-10T07:45:24.279Z,97265.53
2019-01-10T07:50:23.566Z,97262.48
2019-01-10T07:55:18.251Z,97264.61
2019-01-10T08:00:19.572Z,97266.06
2019-01-10T08:05:14.868Z,97271.73
2019-01-10T08:10:16.640Z,97276.27
2019-01-10T08:15:19.210Z,97277.23
2019-01-10T08:20:14.603Z,97280.81
2019-01-10T08:25:11.519Z,97279.89
2019-01-10T08:30:22.082Z,97289.27
2019-01-10T08:35:22.708Z,97294.47
2019-01-10T08:40:17.507Z,97294.60
2019-01-10T08:45:21.860Z,97298.48
2019-01-10T08:50:23.166Z,97309.48
2019-01-10T08:55:17.968Z,97305.11
2019-01-10T09:00:16.489Z,97315.52
2019-01-10T09:05:12.418Z,97308.41
2019-01-10T09:10:17.739Z,97314.88
2019-01-10T09:15:12.505Z,97320.69
2019-01-10T09:20:11.855Z,97322.14
2019-01-10T09:25:07.296Z,97325.86
2019-01-10T09:30:10.721Z,97323.78
2019-01-10T09:35:06.146Z,97309.25
2019-01-10T09:40:00.770Z,97329.81
2019-01-10T09:44:55.698Z,97323.66
2019-01-10T09:49:50.392Z,97332.70
2019-01-10T09:54:49.365Z,97333.35
2019-01-10T09:59:50.316Z,97336.25
2019-01-10T10:04:48.688Z,97340.48
2019-01-10T10:09:43.685Z,97344.38
2019-01-10T10:14:40.386Z,97345.17
2019-01-10T10:19:40.670Z,97335.47
2019-01-10T10:24:36.684Z,97337.53
2019-01-10T10:29:31.613Z,97342.09
2019-01-10T10:34:26.671Z,97337.67
2019-01-10T10:39:21.347Z,97340.46
2019-01-10T10:44:15.991Z,97343.53
2019-01-10T10:49:13.606Z,97347.92
2019-01-10T10:54:09.198Z,97350.33
2019-01-10T10:59:06.264Z,97344.83
2019-01-10T11:04:00.957Z,97349.86
2019-01-10T11:08:55.566Z,97345.49
2019-01-10T11:13:50.238Z,97332.03
2019-01-10T11:18:45.019Z,97335.72
2019-01-10T11:23:39.558Z,97327.94
2019-01-10T11:28:34.221Z,97334.44
2019-01-10T11:33:28.802Z,97331.27
2019-01-10T11:38:25.455Z,97330.59
2019-01-10T11:43:20.342Z,97328.39
2019-01-10T11:48:14.987Z,97323.06
2019-01-10T11:53:09.668Z,97332.13
2019-01-10T11:58:04.434Z,97325.73
2019-01-10T12:03:00.553Z,97324.95
2019-01-10T12:07:57.927Z,97329.52
2019-01-10T12:12:53.297Z,97319.02
2019-01-10T12:17:59.071Z,97315.96
2019-01-10T12:22:54.151Z,97315.64
2019-01-10T12:27:49.906Z,97311.23
2019-01-10T12:32:44.653Z,97304.41
2019-01-10T12:37:39.325Z,97307.49
2019-01-10T12:42:33.932Z,97312.05
2019-01-10T12:47:28.586Z,97311.06
2019-01-10T12:52:23.199Z,97313.48
2019-01-10T12:57:18.441Z,97306.34
2019-01-10T13:02:13.062Z,97310.64
2019-01-10T13:07:07.754Z,97307.41
2019-01-10T13:12:02.564Z,97311.95
2019-01-10T13:16:57.231Z,97318.23
2019-01-10T13:21:52.086Z,97312.61
2019-01-10T13:26:46.900Z,97321.99
2019-01-10T13:31:41.712Z,97323.12
2019-01-10T13:36:37.040Z,97324.53
2019-01-10T13:41:31.693Z,97327.81
2019-01-10T13:46:26.345Z,97327.51
2019-01-10T13:51:21.136Z,97333.19
2019-01-10T13:56:16.037Z,97332.06
2019-01-10T14:01:10.708Z,97333.20
2019-01-10T14:06:06.562Z,97346.00
2019-01-10T14:11:01.564Z,97334.17
2019-01-10T14:15:59.692Z,97337.25
2019-01-10T14:20:56.243Z,97345.47
2019-01-10T14:25:51.050Z,97344.98
2019-01-10T14:30:45.701Z,97347.41
2019-01-10T14:35:40.515Z,97351.00
2019-01-10T14:40:39.147Z,97356.34
2019-01-10T14:45:35.953Z,97359.10
2019-01-10T14:50:30.742Z,97364.92
2019-01-10T14:55:25.581Z,97370.91
2019-01-10T15:00:24.191Z,97371.89
2019-01-10T15:05:20.506Z,97377.08
2019-01-10T15:10:16.196Z,97388.99
2019-01-10T15:15:15.401Z,97389.30
2019-01-10T15:20:19.100Z,97391.31
2019-01-10T15:25:14.029Z,97393.08
2019-01-10T15:30:24.359Z,97402.78
2019-01-10T15:35:19.381Z,97400.99
2019-01-10T15:40:26.841Z,97409.59
2019-01-10T15:45:21.643Z,97413.95
2019-01-10T15:50:20.938Z,97414.92
2019-01-10T15:55:21.123Z,97419.47
2019-01-10T16:00:19.626Z,97426.55
2019-01-10T16:05:14.746Z,97423.80
2019-01-10T16:10:13.643Z,97426.55
2019-01-10T16:15:15.624Z,97427.71
2019-01-10T16:20:13.711Z,97425.14
2019-01-10T16:25:12.050Z,97432.06
2019-01-10T16:30:14.229Z,97432.50
2019-01-10T16:35:09.074Z,97437.13
2019-01-10T16:40:05.242Z,97440.22
2019-01-10T16:45:00.073Z,97443.27
2019-01-10T16:49:54.658Z,97451.36
2019-01-10T16:54:49.257Z,97456.54
2019-01-10T16:59:43.979Z,97461.61
2019-01-10T17:04:38.595Z,97464.70
2019-01-10T17:09:33.196Z,97466.73
2019-01-10T17:14:27.807Z,97473.41
2019-01-10T17:19:22.414Z,97477.28
2019-01-10T17:24:17.007Z,97477.30
2019-01-10T17:29:11.700Z,97502.72
2019-01-10T17:34:06.360Z,97491.87
2019-01-10T17:39:01.044Z,97496.30
2019-01-10T17:43:55.645Z,97500.78
2019-01-10T17:48:50.281Z,97498.30
2019-01-10T17:53:44.883Z,97506.44
2019-01-10T17:58:39.492Z,97512.68
2019-01-10T18:03:39.970Z,97518.48
2019-01-10T18:08:30.416Z,97521.72
2019-01-10T18:13:25.069Z,97527.59
2019-01-10T18:18:19.725Z,97521.53
2019-01-10T18:23:14.327Z,97534.58
2019-01-10T18:28:09.051Z,97535.87
2019-01-10T18:33:03.792Z,97538.03
2019-01-10T18:37:58.583Z,97543.17
2019-01-10T18:42:53.143Z,97557.23
2019-01-10T18:47:47.825Z,97550.69
2019-01-10T18:52:42.499Z,97556.64
2019-01-10T18:57:37.105Z,97551.11
2019-01-10T19:02:31.792Z,97562.06
2019-01-10T19:07:26.399Z,97557.84
2019-01-10T19:12:21.024Z,97561.56
2019-01-10T19:17:15.662Z,97563.44
2019-01-10T19:22:10.327Z,97569.22
2019-01-10T19:27:05.018Z,97581.36
2019-01-10T19:31:59.611Z,97572.14
2019-01-10T19:36:54.218Z,97576.17
2019-01-10T19:41:48.933Z,97574.92
2019-01-10T19:46:43.661Z,97584.28
2019-01-10T19:51:38.235Z,97587.09
2019-01-10T19:56:32.943Z,97591.58
2019-01-10T20:01:27.535Z,97589.56
2019-01-10T20:06:22.502Z,97602.80
2019-01-10T20:11:17.195Z,97600.22
2019-01-10T20:16:11.955Z,97598.40
2019-01-10T20:21:06.652Z,97602.74
2019-01-10T20:26:01.317Z,97608.61
2019-01-10T20:30:56.104Z,97609.41
2019-01-10T20:35:50.923Z,97615.74
2019-01-10T20:40:46.740Z,97620.94
2019-01-10T20:45:41.718Z,97621.09
2019-01-10T20:50:36.494Z,97613.59
2019-01-10T20:55:31.156Z,97611.88
2019-01-10T21:00:27.510Z,97611.61
2019-01-10T21:05:22.166Z,97612.54
2019-01-10T21:10:19.972Z,97616.27
2019-01-10T21:15:26.855Z,97627.92
2019-01-10T21:20:21.614Z,97626.39
2019-01-10T21:25:16.441Z,97627.92
2019-01-10T21:30:18.384Z,97621.59
2019-01-10T21:35:13.147Z,97622.84
2019-01-10T21:40:24.469Z,97619.02
2019-01-10T21:45:22.706Z,97620.33
2019-01-10T21:50:22.151Z,97624.83
2019-01-10T21:55:17.032Z,97630.34
2019-01-10T22:00:31.643Z,97634.89
2019-01-10T22:05:26.484Z,97636.56
2019-01-10T22:10:21.301Z,97637.05
2019-01-10T22:15:18.282Z,97637.67
2019-01-10T22:20:22.019Z,97642.50
2019-01-10T22:25:16.667Z,97635.61
2019-01-10T22:30:19.388Z,97643.52
2019-01-10T22:35:18.055Z,97641.91
2019-01-10T22:40:16.923Z,97639.98
2019-01-10T22:45:12.530Z,97638.93
2019-01-10T22:50:14.703Z,97638.44
2019-01-10T22:55:13.263Z,97644.28
2019-01-10T23:00:58.679Z,97643.89
2019-01-10T23:05:53.339Z,97644.65
2019-01-10T23:10:48.165Z,97649.98
2019-01-10T23:15:42.758Z,97649.37
2019-01-10T23:20:37.732Z,97648.29
2019-01-10T23:25:32.316Z,97644.91
2019-01-10T23:30:48.573Z,97641.98
2019-01-10T23:35:43.202Z,97638.86
2019-01-10T23:40:38.674Z,97638.28
2019-01-10T23:45:33.353Z,97635.59
2019-01-10T23:50:27.961Z,97632.57
2019-01-10T23:55:22.547Z,97633.25
